Time;durP1;ratioP1;P1;durP2;ratioP2;P2;SDS_P1;SDS_P2;PMS_P1;PMS_P2;Temp;Humidity;BMP_temperature;BMP_pressure;BME280_temperature;BME280_humidity;BME280_pressure;Samples;Min_cycle;Max_cycle;Signal;HPM_P1;HPM_P2
2021/11/21 00:02:00;;;;;;;26.10;18.10;;;;;;;;;;772186;178;919260;-64
2021/11/21 00:04:26;;;;;;;28.77;17.23;;;;;;;;;;761606;180;918830;-64
2021/11/21 00:06:52;;;;;;;29.83;17.00;;;;;;;;;;765709;179;919777;-64
2021/11/21 00:09:18;;;;;;;24.53;16.13;;;;;;;;;;770638;180;919411;-64
2021/11/21 00:11:44;;;;;;;27.20;16.27;;;;;;;;;;772365;180;919496;-65
2021/11/21 00:14:10;;;;;;;24.43;16.73;;;;;;;;;;770099;180;1020371;-64
2021/11/21 00:16:35;;;;;;;26.20;17.47;;;;;;;;;;769108;182;919433;-65
2021/11/21 00:19:01;;;;;;;27.23;18.50;;;;;;;;;;762792;181;920145;-64
2021/11/21 00:21:27;;;;;;;30.40;18.67;;;;;;;;;;771274;180;919534;-64
2021/11/21 00:23:53;;;;;;;25.83;17.77;;;;;;;;;;762075;180;920078;-64
2021/11/21 00:26:19;;;;;;;26.80;18.90;;;;;;;;;;778708;179;918778;-64
2021/11/21 00:28:45;;;;;;;29.83;19.47;;;;;;;;;;767159;180;918659;-64
2021/11/21 00:31:10;;;;;;;25.67;18.67;;;;;;;;;;761857;180;925663;-64
2021/11/21 00:33:36;;;;;;;28.07;19.10;;;;;;;;;;776519;180;919309;-64
2021/11/21 00:36:02;;;;;;;24.93;17.97;;;;;;;;;;770786;180;944468;-64
2021/11/21 00:38:28;;;;;;;25.80;19.13;;;;;;;;;;772295;179;920286;-64
2021/11/21 00:40:54;;;;;;;27.13;17.50;;;;;;;;;;781575;179;919372;-64
2021/11/21 00:43:21;;;;;;;25.77;16.63;;;;;;;;;;771317;180;919579;-65
2021/11/21 00:45:46;;;;;;;25.20;16.70;;;;;;;;;;771049;180;919498;-66
2021/11/21 00:48:19;;;;;;;24.33;15.00;;;;;;;;;;773125;179;918153;-64
2021/11/21 00:50:39;;;;;;;24.50;16.50;;;;;;;;;;768823;181;1020338;-63
2021/11/21 00:53:05;;;;;;;26.07;16.40;;;;;;;;;;769442;180;920680;-64
2021/11/21 00:55:39;;;;;;;25.50;16.13;;;;;;;;;;765931;180;983166;-64
2021/11/21 00:58:03;;;;;;;23.23;16.23;;;;;;;;;;776393;180;919150;-64
2021/11/21 01:00:29;;;;;;;23.75;16.92;;;;;;;;;;765705;179;920180;-64
2021/11/21 01:02:55;;;;;;;23.10;14.70;;;;;;;;;;771629;180;919193;-64
2021/11/21 01:05:21;;;;;;;25.07;15.57;;;;;;;;;;769336;180;917939;-64
2021/11/21 01:07:47;;;;;;;25.55;15.38;;;;;;;;;;759949;183;918295;-64
2021/11/21 01:10:12;;;;;;;25.00;15.00;;;;;;;;;;771634;180;920186;-63
2021/11/21 01:12:40;;;;;;;21.40;15.30;;;;;;;;;;763940;180;918412;-63
2021/11/21 01:15:05;;;;;;;21.37;15.10;;;;;;;;;;772551;180;919304;-63
2021/11/21 01:17:31;;;;;;;24.43;15.90;;;;;;;;;;766634;181;918634;-64
2021/11/21 01:20:00;;;;;;;26.37;17.50;;;;;;;;;;771857;180;919423;-64
2021/11/21 01:22:23;;;;;;;20.23;14.80;;;;;;;;;;773099;181;918165;-64
2021/11/21 01:24:48;;;;;;;27.10;15.85;;;;;;;;;;771988;180;919084;-63
2021/11/21 01:27:14;;;;;;;21.43;15.30;;;;;;;;;;770662;180;919473;-63
2021/11/21 01:29:41;;;;;;;27.20;16.23;;;;;;;;;;768917;180;919520;-63
2021/11/21 01:32:07;;;;;;;23.73;15.50;;;;;;;;;;761573;183;918328;-64
2021/11/21 01:34:33;;;;;;;20.63;14.43;;;;;;;;;;764911;181;918886;-63
2021/11/21 01:36:58;;;;;;;20.83;15.20;;;;;;;;;;769231;180;919022;-64
2021/11/21 01:39:24;;;;;;;25.80;16.37;;;;;;;;;;771322;179;919315;-64
2021/11/21 01:41:50;;;;;;;23.17;15.60;;;;;;;;;;772590;180;919484;-64
2021/11/21 01:44:16;;;;;;;23.53;16.40;;;;;;;;;;766765;180;926476;-64
2021/11/21 01:46:42;;;;;;;27.03;16.37;;;;;;;;;;770075;180;915673;-66
2021/11/21 01:49:08;;;;;;;22.50;16.30;;;;;;;;;;765935;180;1017500;-64
2021/11/21 01:51:35;;;;;;;21.87;15.10;;;;;;;;;;767570;180;916598;-64
2021/11/21 01:54:01;;;;;;;25.02;16.60;;;;;;;;;;778180;180;915477;-64
2021/11/21 01:56:27;;;;;;;23.90;16.53;;;;;;;;;;763743;182;918742;-64
2021/11/21 01:58:54;;;;;;;23.40;15.60;;;;;;;;;;763676;181;913819;-64
2021/11/21 02:01:20;;;;;;;23.90;15.90;;;;;;;;;;766364;180;1022710;-64
2021/11/21 02:03:46;;;;;;;25.13;16.77;;;;;;;;;;773543;181;921078;-64
2021/11/21 02:06:12;;;;;;;24.87;17.07;;;;;;;;;;770422;180;923920;-64
2021/11/21 02:08:38;;;;;;;28.83;16.60;;;;;;;;;;770354;180;916490;-64
2021/11/21 02:11:03;;;;;;;24.17;16.60;;;;;;;;;;781986;179;915793;-64
2021/11/21 02:13:29;;;;;;;25.50;18.00;;;;;;;;;;765134;180;915436;-65
2021/11/21 02:15:55;;;;;;;24.03;16.87;;;;;;;;;;761651;180;919194;-64
2021/11/21 02:18:21;;;;;;;24.57;17.30;;;;;;;;;;767547;179;918406;-64
2021/11/21 02:20:47;;;;;;;25.93;17.90;;;;;;;;;;768163;180;920106;-64
2021/11/21 02:23:13;;;;;;;25.17;17.87;;;;;;;;;;769316;180;919132;-64
2021/11/21 02:25:38;;;;;;;30.90;16.87;;;;;;;;;;766103;180;919395;-64
2021/11/21 02:28:05;;;;;;;25.40;17.57;;;;;;;;;;775819;181;920477;-64
2021/11/21 02:30:31;;;;;;;25.00;17.27;;;;;;;;;;767303;180;926229;-64
2021/11/21 02:32:56;;;;;;;23.60;16.80;;;;;;;;;;766776;180;919556;-64
2021/11/21 02:35:22;;;;;;;27.43;20.00;;;;;;;;;;774563;180;919292;-64
2021/11/21 02:37:48;;;;;;;27.40;17.20;;;;;;;;;;766046;180;920287;-64
2021/11/21 02:40:14;;;;;;;23.77;16.73;;;;;;;;;;766727;180;919057;-64
2021/11/21 02:42:40;;;;;;;27.20;17.70;;;;;;;;;;772464;180;918446;-64
2021/11/21 02:45:07;;;;;;;23.63;17.00;;;;;;;;;;771487;179;919424;-64
2021/11/21 02:47:34;;;;;;;24.52;16.48;;;;;;;;;;762665;179;919386;-64
2021/11/21 02:49:59;;;;;;;24.20;16.13;;;;;;;;;;768037;179;919985;-65
2021/11/21 02:52:24;;;;;;;23.63;15.17;;;;;;;;;;765631;182;1416022;-64
2021/11/21 02:54:52;;;;;;;28.30;17.43;;;;;;;;;;765888;180;915889;-64
2021/11/21 02:57:18;;;;;;;30.10;17.43;;;;;;;;;;764751;181;916855;-64
2021/11/21 02:59:44;;;;;;;26.93;16.60;;;;;;;;;;772503;179;916047;-67
2021/11/21 03:02:10;;;;;;;23.40;15.93;;;;;;;;;;768846;180;1021243;-64
2021/11/21 03:04:36;;;;;;;23.48;16.65;;;;;;;;;;769825;180;918992;-64
2021/11/21 03:07:02;;;;;;;23.53;16.53;;;;;;;;;;775727;180;919176;-65
2021/11/21 03:09:28;;;;;;;24.27;16.83;;;;;;;;;;773002;180;919177;-64
2021/11/21 03:11:54;;;;;;;20.77;15.47;;;;;;;;;;773750;179;918996;-64
2021/11/21 03:14:20;;;;;;;20.17;14.73;;;;;;;;;;771518;180;918927;-65
2021/11/21 03:16:46;;;;;;;23.13;15.07;;;;;;;;;;776613;180;919378;-64
2021/11/21 03:19:11;;;;;;;22.10;14.77;;;;;;;;;;766812;180;919295;-63
2021/11/21 03:21:37;;;;;;;24.00;15.45;;;;;;;;;;767541;181;918388;-64
2021/11/21 03:24:03;;;;;;;23.90;15.13;;;;;;;;;;767342;181;918880;-63
2021/11/21 03:26:29;;;;;;;24.60;15.60;;;;;;;;;;771799;180;918297;-64
2021/11/21 03:28:55;;;;;;;18.00;13.95;;;;;;;;;;771894;180;918642;-64
2021/11/21 03:31:21;;;;;;;24.00;15.67;;;;;;;;;;773199;180;918504;-64
2021/11/21 03:33:47;;;;;;;23.33;16.17;;;;;;;;;;769234;177;919128;-64
2021/11/21 03:36:12;;;;;;;24.40;16.03;;;;;;;;;;766327;180;918891;-64
2021/11/21 03:38:38;;;;;;;21.30;14.80;;;;;;;;;;770463;180;919449;-64
2021/11/21 03:41:04;;;;;;;21.90;14.77;;;;;;;;;;770938;181;918653;-64
2021/11/21 03:43:30;;;;;;;21.03;15.30;;;;;;;;;;765855;180;918818;-65
2021/11/21 03:45:56;;;;;;;22.63;15.90;;;;;;;;;;767865;180;918639;-64
2021/11/21 03:48:22;;;;;;;21.80;16.30;;;;;;;;;;776661;179;911748;-64
2021/11/21 03:50:47;;;;;;;23.40;15.93;;;;;;;;;;767264;180;921364;-64
2021/11/21 03:53:13;;;;;;;21.90;13.37;;;;;;;;;;766559;180;919766;-65
2021/11/21 03:55:39;;;;;;;22.23;14.87;;;;;;;;;;773989;180;916510;-64
2021/11/21 03:58:05;;;;;;;20.47;14.87;;;;;;;;;;770331;179;916476;-64
2021/11/21 04:00:31;;;;;;;18.57;14.00;;;;;;;;;;768547;180;916232;-64
2021/11/21 04:02:57;;;;;;;24.83;15.00;;;;;;;;;;768931;181;912363;-63
2021/11/21 04:05:23;;;;;;;24.30;14.37;;;;;;;;;;765390;182;928907;-65
2021/11/21 04:07:49;;;;;;;20.90;14.43;;;;;;;;;;761405;181;953299;-64
2021/11/21 04:10:15;;;;;;;20.23;15.67;;;;;;;;;;765855;181;919946;-64
2021/11/21 04:12:41;;;;;;;20.03;15.50;;;;;;;;;;773386;181;919426;-64
2021/11/21 04:15:07;;;;;;;23.13;15.30;;;;;;;;;;769215;180;917815;-64
2021/11/21 04:17:33;;;;;;;19.00;14.63;;;;;;;;;;766346;180;919390;-64
2021/11/21 04:19:58;;;;;;;21.63;15.73;;;;;;;;;;772120;180;919110;-64
2021/11/21 04:22:24;;;;;;;23.83;17.27;;;;;;;;;;774629;179;918484;-64
2021/11/21 04:24:50;;;;;;;21.83;15.40;;;;;;;;;;768359;180;915023;-64
2021/11/21 04:27:17;;;;;;;20.62;15.00;;;;;;;;;;775037;180;922111;-63
2021/11/21 04:29:43;;;;;;;22.63;15.83;;;;;;;;;;775572;179;915535;-65
2021/11/21 04:32:08;;;;;;;21.70;15.83;;;;;;;;;;764706;180;918941;-64
2021/11/21 04:34:34;;;;;;;21.57;15.70;;;;;;;;;;768665;181;916569;-64
2021/11/21 04:37:00;;;;;;;21.17;17.27;;;;;;;;;;776479;180;918880;-65
2021/11/21 04:39:26;;;;;;;29.60;16.20;;;;;;;;;;764205;181;915299;-64
2021/11/21 04:41:53;;;;;;;20.93;15.90;;;;;;;;;;770010;180;952235;-64
2021/11/21 04:44:18;;;;;;;21.90;16.23;;;;;;;;;;776654;180;919463;-64
2021/11/21 04:46:43;;;;;;;21.70;16.40;;;;;;;;;;768380;181;1020733;-64
2021/11/21 04:49:10;;;;;;;26.20;16.70;;;;;;;;;;761454;180;919603;-64
2021/11/21 04:51:36;;;;;;;21.00;15.00;;;;;;;;;;768057;180;920599;-64
2021/11/21 04:54:04;;;;;;;23.90;16.20;;;;;;;;;;766139;180;919647;-64
2021/11/21 04:56:28;;;;;;;16.93;14.17;;;;;;;;;;764040;181;956475;-64
2021/11/21 04:58:53;;;;;;;20.93;15.03;;;;;;;;;;768035;180;918155;-64
2021/11/21 05:01:20;;;;;;;22.35;14.85;;;;;;;;;;773835;180;918340;-64
2021/11/21 05:03:45;;;;;;;20.00;15.43;;;;;;;;;;769376;180;919898;-64
2021/11/21 05:06:11;;;;;;;20.75;15.27;;;;;;;;;;765705;180;918600;-64
2021/11/21 05:08:37;;;;;;;20.47;14.80;;;;;;;;;;774358;180;918484;-64
2021/11/21 05:11:03;;;;;;;18.52;14.60;;;;;;;;;;770497;180;919115;-64
2021/11/21 05:13:28;;;;;;;20.87;13.30;;;;;;;;;;769556;180;918440;-64
2021/11/21 05:15:54;;;;;;;24.07;15.13;;;;;;;;;;772177;180;919030;-64
2021/11/21 05:18:20;;;;;;;22.07;14.87;;;;;;;;;;769103;180;918970;-64
2021/11/21 05:20:46;;;;;;;16.57;10.80;;;;;;;;;;765455;180;1114834;-64
2021/11/21 05:23:12;;;;;;;19.63;12.70;;;;;;;;;;771113;180;919165;-63
2021/11/21 05:25:38;;;;;;;15.83;11.43;;;;;;;;;;778615;179;919225;-64
2021/11/21 05:28:03;;;;;;;17.05;11.95;;;;;;;;;;762855;181;918558;-64
2021/11/21 05:30:29;;;;;;;18.00;11.47;;;;;;;;;;769917;181;919933;-64
2021/11/21 05:32:55;;;;;;;17.33;10.67;;;;;;;;;;780769;178;919109;-64
2021/11/21 05:35:21;;;;;;;16.37;10.20;;;;;;;;;;766130;181;919103;-64
2021/11/21 05:37:48;;;;;;;16.70;10.73;;;;;;;;;;773102;180;919196;-63
2021/11/21 05:40:13;;;;;;;16.30;11.40;;;;;;;;;;771736;180;918692;-63
2021/11/21 05:42:39;;;;;;;16.73;10.90;;;;;;;;;;771328;180;920619;-64
2021/11/21 05:45:05;;;;;;;15.23;11.13;;;;;;;;;;773863;180;925945;-64
2021/11/21 05:47:31;;;;;;;23.63;13.17;;;;;;;;;;778691;179;919630;-64
2021/11/21 05:49:56;;;;;;;20.13;13.13;;;;;;;;;;768167;179;1717122;-64
2021/11/21 05:52:22;;;;;;;18.80;11.70;;;;;;;;;;767234;180;919610;-63
2021/11/21 05:54:48;;;;;;;18.90;11.40;;;;;;;;;;770494;180;918808;-64
2021/11/21 05:57:14;;;;;;;19.10;12.57;;;;;;;;;;771587;180;920612;-62
2021/11/21 05:59:40;;;;;;;18.80;12.80;;;;;;;;;;773744;180;919653;-63
2021/11/21 06:02:06;;;;;;;22.92;12.93;;;;;;;;;;766523;182;919114;-63
2021/11/21 06:04:32;;;;;;;18.97;13.60;;;;;;;;;;778906;179;914035;-63
2021/11/21 06:06:58;;;;;;;21.30;13.90;;;;;;;;;;771519;180;919018;-63
2021/11/21 06:09:23;;;;;;;16.73;10.80;;;;;;;;;;770140;180;917967;-64
2021/11/21 06:11:51;;;;;;;17.00;11.47;;;;;;;;;;773408;179;918823;-63
2021/11/21 06:14:15;;;;;;;18.70;11.97;;;;;;;;;;761645;180;919127;-64
2021/11/21 06:16:41;;;;;;;19.90;12.63;;;;;;;;;;769961;180;918916;-64
2021/11/21 06:19:07;;;;;;;18.30;11.43;;;;;;;;;;770377;180;918914;-64
2021/11/21 06:21:33;;;;;;;19.57;11.83;;;;;;;;;;776319;180;919545;-63
2021/11/21 06:23:58;;;;;;;17.80;11.93;;;;;;;;;;767590;180;918603;-64
2021/11/21 06:26:24;;;;;;;25.90;15.33;;;;;;;;;;768234;180;980532;-65
2021/11/21 06:28:51;;;;;;;24.67;13.20;;;;;;;;;;771879;180;919431;-63
2021/11/21 06:31:16;;;;;;;24.23;14.43;;;;;;;;;;772022;180;917379;-64
2021/11/21 06:33:42;;;;;;;22.75;14.38;;;;;;;;;;766869;180;922458;-64
2021/11/21 06:36:08;;;;;;;22.80;14.40;;;;;;;;;;776732;180;919343;-64
2021/11/21 06:38:33;;;;;;;25.30;16.00;;;;;;;;;;766155;180;919528;-64
2021/11/21 06:40:59;;;;;;;29.10;15.67;;;;;;;;;;769527;180;919160;-64
2021/11/21 06:43:25;;;;;;;26.30;15.03;;;;;;;;;;773700;177;987999;-64
2021/11/21 06:45:51;;;;;;;21.70;14.17;;;;;;;;;;777004;180;918691;-64
2021/11/21 06:48:20;;;;;;;27.97;15.73;;;;;;;;;;762411;180;919130;-64
2021/11/21 06:50:46;;;;;;;24.02;15.35;;;;;;;;;;769371;179;914320;-63
2021/11/21 06:53:08;;;;;;;23.77;16.40;;;;;;;;;;776377;180;913800;-64
2021/11/21 06:55:35;;;;;;;31.12;18.45;;;;;;;;;;768390;179;919075;-64
2021/11/21 06:58:00;;;;;;;26.53;15.20;;;;;;;;;;768749;180;918938;-64
2021/11/21 07:00:26;;;;;;;29.03;17.33;;;;;;;;;;775065;180;922782;-63
2021/11/21 07:02:52;;;;;;;23.53;14.93;;;;;;;;;;768258;180;930290;-64
2021/11/21 07:05:18;;;;;;;30.10;16.60;;;;;;;;;;770365;180;920873;-63
2021/11/21 07:07:44;;;;;;;31.37;15.40;;;;;;;;;;775252;180;919091;-64
2021/11/21 07:10:12;;;;;;;27.97;15.97;;;;;;;;;;766596;180;917347;-64
2021/11/21 07:12:36;;;;;;;30.97;18.07;;;;;;;;;;770139;180;919161;-64
2021/11/21 07:15:01;;;;;;;25.90;15.13;;;;;;;;;;770061;180;920811;-64
2021/11/21 07:17:27;;;;;;;34.70;16.97;;;;;;;;;;776946;180;916791;-64
2021/11/21 07:19:53;;;;;;;31.83;19.43;;;;;;;;;;766265;179;918598;-64
2021/11/21 07:22:20;;;;;;;29.80;17.05;;;;;;;;;;764643;180;945922;-65
2021/11/21 07:24:50;;;;;;;39.27;19.20;;;;;;;;;;773133;180;912768;-64
2021/11/21 07:27:16;;;;;;;30.07;17.13;;;;;;;;;;766068;180;1022641;-64
2021/11/21 07:29:41;;;;;;;34.07;16.40;;;;;;;;;;767530;180;1015417;-64
2021/11/21 07:32:08;;;;;;;31.67;16.90;;;;;;;;;;760725;182;919312;-66
2021/11/21 07:34:34;;;;;;;33.40;18.30;;;;;;;;;;754977;184;920648;-64
2021/11/21 07:36:59;;;;;;;28.23;15.77;;;;;;;;;;759608;183;919348;-64
2021/11/21 07:39:26;;;;;;;34.23;19.17;;;;;;;;;;766773;180;932139;-68
2021/11/21 07:41:52;;;;;;;33.03;18.10;;;;;;;;;;774494;180;918267;-64
2021/11/21 07:44:18;;;;;;;28.80;19.00;;;;;;;;;;769014;180;919504;-65
2021/11/21 07:46:44;;;;;;;36.00;19.33;;;;;;;;;;769042;180;1021575;-65
2021/11/21 07:49:10;;;;;;;28.92;18.05;;;;;;;;;;775434;179;918978;-64
2021/11/21 07:51:36;;;;;;;32.20;19.23;;;;;;;;;;767880;180;919799;-64
2021/11/21 07:54:01;;;;;;;34.00;19.27;;;;;;;;;;770824;180;919210;-64
2021/11/21 07:56:27;;;;;;;30.80;18.20;;;;;;;;;;771509;179;918134;-64
2021/11/21 07:58:53;;;;;;;32.80;19.27;;;;;;;;;;771132;180;933963;-64
2021/11/21 08:01:19;;;;;;;37.70;18.37;;;;;;;;;;762652;180;920123;-64
2021/11/21 08:03:45;;;;;;;45.43;20.77;;;;;;;;;;768413;180;919831;-64
2021/11/21 08:06:11;;;;;;;29.70;17.63;;;;;;;;;;772671;180;919688;-65
2021/11/21 08:08:40;;;;;;;35.03;16.00;;;;;;;;;;764307;180;917589;-65
2021/11/21 08:11:05;;;;;;;27.27;16.47;;;;;;;;;;768562;180;919007;-64
2021/11/21 08:13:31;;;;;;;32.83;18.10;;;;;;;;;;772193;180;919501;-64
2021/11/21 08:15:57;;;;;;;31.50;18.00;;;;;;;;;;768191;180;918786;-65
2021/11/21 08:18:23;;;;;;;33.50;18.50;;;;;;;;;;763507;180;918503;-64
2021/11/21 08:20:49;;;;;;;35.10;19.70;;;;;;;;;;771450;180;913649;-65
2021/11/21 08:23:15;;;;;;;40.00;18.80;;;;;;;;;;778279;180;634704;-64
2021/11/21 08:25:41;;;;;;;32.60;19.20;;;;;;;;;;771771;181;915524;-66
2021/11/21 08:28:06;;;;;;;36.40;20.20;;;;;;;;;;771113;180;631990;-64
2021/11/21 08:30:36;;;;;;;42.47;21.43;;;;;;;;;;776771;180;919060;-64
2021/11/21 08:32:58;;;;;;;34.30;18.90;;;;;;;;;;772667;180;627604;-64
2021/11/21 08:35:24;;;;;;;36.97;20.40;;;;;;;;;;766147;181;632065;-64
2021/11/21 08:37:50;;;;;;;31.63;18.60;;;;;;;;;;779811;180;618319;-64
2021/11/21 08:40:16;;;;;;;40.57;21.23;;;;;;;;;;774003;179;639639;-64
2021/11/21 08:42:42;;;;;;;39.73;20.70;;;;;;;;;;773536;181;713291;-66
2021/11/21 08:45:08;;;;;;;39.87;20.60;;;;;;;;;;771608;180;624250;-65
2021/11/21 08:47:33;;;;;;;45.50;21.43;;;;;;;;;;774204;181;654588;-66
2021/11/21 08:49:59;;;;;;;33.97;22.33;;;;;;;;;;761015;180;633449;-65
2021/11/21 08:52:25;;;;;;;35.63;22.00;;;;;;;;;;772991;180;631312;-64
2021/11/21 08:54:51;;;;;;;38.73;18.83;;;;;;;;;;782533;179;636865;-65
2021/11/21 08:57:17;;;;;;;37.63;21.60;;;;;;;;;;774192;180;931470;-64
2021/11/21 08:59:43;;;;;;;34.10;17.00;;;;;;;;;;770280;180;921493;-65
2021/11/21 09:02:08;;;;;;;40.00;23.13;;;;;;;;;;763549;180;919254;-64
2021/11/21 09:04:34;;;;;;;35.75;21.87;;;;;;;;;;766307;180;920575;-65
2021/11/21 09:07:00;;;;;;;41.47;23.30;;;;;;;;;;771344;180;917673;-66
2021/11/21 09:09:27;;;;;;;40.63;22.67;;;;;;;;;;776283;179;1021346;-63
2021/11/21 09:11:53;;;;;;;35.43;20.57;;;;;;;;;;776016;180;918778;-63
2021/11/21 09:14:19;;;;;;;40.30;22.10;;;;;;;;;;771129;180;918929;-64
2021/11/21 09:16:45;;;;;;;39.83;18.90;;;;;;;;;;763731;180;929212;-64
2021/11/21 09:19:10;;;;;;;34.53;20.17;;;;;;;;;;774483;180;917856;-64
2021/11/21 09:21:37;;;;;;;37.50;22.10;;;;;;;;;;770622;180;918253;-64
2021/11/21 09:24:02;;;;;;;39.92;21.42;;;;;;;;;;767641;179;1543014;-65
2021/11/21 09:26:29;;;;;;;33.20;19.27;;;;;;;;;;773256;180;919242;-65
2021/11/21 09:28:54;;;;;;;37.10;19.10;;;;;;;;;;762287;181;1022859;-64
2021/11/21 09:31:20;;;;;;;35.37;17.80;;;;;;;;;;775000;179;920482;-65
2021/11/21 09:33:45;;;;;;;36.27;19.93;;;;;;;;;;778197;180;914448;-65
2021/11/21 09:36:12;;;;;;;33.23;20.40;;;;;;;;;;769452;180;918374;-64
2021/11/21 09:38:37;;;;;;;38.70;22.67;;;;;;;;;;770049;180;916438;-65
2021/11/21 09:41:03;;;;;;;36.03;19.87;;;;;;;;;;773076;179;632955;-64
2021/11/21 09:43:30;;;;;;;38.03;20.40;;;;;;;;;;775424;180;619970;-65
2021/11/21 09:45:55;;;;;;;37.27;21.80;;;;;;;;;;769041;180;898905;-65
2021/11/21 09:48:21;;;;;;;36.83;20.98;;;;;;;;;;771667;180;915697;-68
2021/11/21 09:50:46;;;;;;;32.77;19.50;;;;;;;;;;774826;180;921062;-65
2021/11/21 09:53:12;;;;;;;36.30;23.33;;;;;;;;;;768345;180;919021;-65
2021/11/21 09:55:38;;;;;;;41.70;23.87;;;;;;;;;;771965;180;921889;-64
2021/11/21 09:58:04;;;;;;;38.90;19.23;;;;;;;;;;772784;181;924866;-65
2021/11/21 10:00:30;;;;;;;35.53;22.40;;;;;;;;;;769112;180;1047839;-64
2021/11/21 10:02:58;;;;;;;37.80;17.90;;;;;;;;;;766770;180;916057;-65
2021/11/21 10:05:25;;;;;;;33.77;20.03;;;;;;;;;;773531;180;920931;-64
2021/11/21 10:07:50;;;;;;;35.50;22.47;;;;;;;;;;772942;180;915912;-65
2021/11/21 10:10:16;;;;;;;34.73;19.70;;;;;;;;;;770743;180;913789;-64
2021/11/21 10:12:42;;;;;;;43.10;20.97;;;;;;;;;;770576;180;915272;-65
2021/11/21 10:15:08;;;;;;;49.43;22.27;;;;;;;;;;775694;180;919315;-64
2021/11/21 10:17:34;;;;;;;33.13;18.23;;;;;;;;;;764211;180;962272;-64
2021/11/21 10:20:02;;;;;;;43.60;21.17;;;;;;;;;;772395;180;921972;-65
2021/11/21 10:22:34;;;;;;;37.85;20.77;;;;;;;;;;770051;179;919290;-63
2021/11/21 10:25:00;;;;;;;40.03;21.73;;;;;;;;;;765746;180;918781;-64
2021/11/21 10:27:26;;;;;;;35.35;19.52;;;;;;;;;;773568;179;918851;-65
2021/11/21 10:29:53;;;;;;;36.30;20.67;;;;;;;;;;768552;180;919200;-65
2021/11/21 10:32:18;;;;;;;37.73;22.70;;;;;;;;;;773428;180;940137;-64
2021/11/21 10:34:50;;;;;;;37.10;21.97;;;;;;;;;;773154;179;919258;-64
2021/11/21 10:37:17;;;;;;;36.13;21.33;;;;;;;;;;777617;179;920622;-64
2021/11/21 10:39:44;;;;;;;35.63;22.07;;;;;;;;;;759366;180;1941192;-64
2021/11/21 10:42:10;;;;;;;38.90;22.40;;;;;;;;;;775137;180;920062;-63
2021/11/21 10:44:36;;;;;;;41.73;22.23;;;;;;;;;;767416;180;996462;-65
2021/11/21 10:47:02;;;;;;;42.77;24.40;;;;;;;;;;769816;179;942842;-65
2021/11/21 10:49:28;;;;;;;34.30;21.90;;;;;;;;;;775364;180;919050;-65
2021/11/21 10:51:54;;;;;;;35.40;21.90;;;;;;;;;;767767;180;919748;-63
2021/11/21 10:54:21;;;;;;;41.27;23.50;;;;;;;;;;774927;179;918450;-64
2021/11/21 10:56:47;;;;;;;33.33;19.77;;;;;;;;;;765378;179;918510;-64
2021/11/21 10:59:14;;;;;;;34.77;21.00;;;;;;;;;;770951;180;919901;-64
2021/11/21 11:01:40;;;;;;;37.23;22.63;;;;;;;;;;772053;179;920074;-64
2021/11/21 11:04:06;;;;;;;41.10;22.93;;;;;;;;;;764191;179;919646;-64
2021/11/21 11:06:32;;;;;;;36.13;19.10;;;;;;;;;;773706;180;918547;-65
2021/11/21 11:08:58;;;;;;;34.87;21.30;;;;;;;;;;762482;181;935315;-64
2021/11/21 11:11:24;;;;;;;41.40;22.90;;;;;;;;;;768661;180;928760;-65
2021/11/21 11:13:50;;;;;;;39.80;24.10;;;;;;;;;;774415;177;921379;-64
2021/11/21 11:16:16;;;;;;;30.30;18.10;;;;;;;;;;773461;180;916480;-65
2021/11/21 11:18:42;;;;;;;37.20;20.35;;;;;;;;;;770758;180;915363;-65
2021/11/21 11:21:09;;;;;;;41.47;22.57;;;;;;;;;;768717;180;918664;-64
2021/11/21 11:23:33;;;;;;;38.77;21.60;;;;;;;;;;766718;180;919512;-64
2021/11/21 11:25:59;;;;;;;40.33;22.00;;;;;;;;;;762393;180;918827;-65
2021/11/21 11:28:25;;;;;;;40.03;20.53;;;;;;;;;;771275;180;1021119;-65
2021/11/21 11:30:51;;;;;;;41.63;25.02;;;;;;;;;;772153;178;918446;-64
2021/11/21 11:33:17;;;;;;;38.37;19.03;;;;;;;;;;765725;181;918556;-66
2021/11/21 11:35:43;;;;;;;36.30;21.93;;;;;;;;;;772904;180;934494;-64
2021/11/21 11:38:10;;;;;;;36.87;21.20;;;;;;;;;;774679;180;918993;-65
2021/11/21 11:40:37;;;;;;;34.30;20.20;;;;;;;;;;773068;180;923628;-65
2021/11/21 11:43:09;;;;;;;38.90;19.60;;;;;;;;;;772130;180;919500;-65
2021/11/21 11:45:40;;;;;;;38.27;21.53;;;;;;;;;;763810;180;1021126;-65
2021/11/21 11:48:11;;;;;;;34.67;21.10;;;;;;;;;;768053;180;918763;-64
2021/11/21 11:50:42;;;;;;;39.83;19.52;;;;;;;;;;773394;180;956835;-65
2021/11/21 11:53:08;;;;;;;36.17;21.13;;;;;;;;;;764832;179;936184;-64
2021/11/21 11:55:34;;;;;;;30.90;18.10;;;;;;;;;;774436;180;916688;-65
2021/11/21 11:57:59;;;;;;;36.40;20.43;;;;;;;;;;776145;179;914724;-64
2021/11/21 12:00:25;;;;;;;40.53;21.73;;;;;;;;;;770803;180;1017621;-63
2021/11/21 12:02:53;;;;;;;31.33;18.53;;;;;;;;;;771297;180;919025;-65
2021/11/21 12:05:17;;;;;;;35.60;22.83;;;;;;;;;;769045;180;918800;-64
2021/11/21 12:07:43;;;;;;;34.83;21.20;;;;;;;;;;773399;180;919131;-64
2021/11/21 12:10:09;;;;;;;37.33;20.80;;;;;;;;;;767359;180;921783;-65
2021/11/21 12:12:41;;;;;;;35.23;19.17;;;;;;;;;;768877;181;923991;-64
2021/11/21 12:15:07;;;;;;;29.53;19.77;;;;;;;;;;776541;180;919202;-64
2021/11/21 12:17:33;;;;;;;37.03;19.20;;;;;;;;;;763152;180;918022;-64
2021/11/21 12:20:01;;;;;;;35.43;21.63;;;;;;;;;;769599;180;918857;-65
2021/11/21 12:22:39;;;;;;;40.07;20.77;;;;;;;;;;768529;180;1082572;-64
2021/11/21 12:25:08;;;;;;;36.90;19.10;;;;;;;;;;774442;180;919102;-66
2021/11/21 12:27:37;;;;;;;32.40;19.13;;;;;;;;;;764606;183;851163;-65
2021/11/21 12:30:04;;;;;;;29.30;17.53;;;;;;;;;;771193;180;917960;-65
2021/11/21 12:32:30;;;;;;;32.20;20.10;;;;;;;;;;766802;180;926279;-66
2021/11/21 12:34:56;;;;;;;32.17;18.67;;;;;;;;;;773289;180;622285;-65
2021/11/21 12:37:22;;;;;;;31.23;18.37;;;;;;;;;;772882;180;634535;-65
2021/11/21 12:39:49;;;;;;;31.37;16.07;;;;;;;;;;761506;180;682358;-66
2021/11/21 12:42:16;;;;;;;28.87;18.90;;;;;;;;;;773874;178;641103;-63
2021/11/21 12:44:40;;;;;;;30.30;16.50;;;;;;;;;;778948;180;631700;-64
2021/11/21 12:47:06;;;;;;;30.80;20.37;;;;;;;;;;774217;179;633573;-63
2021/11/21 12:49:32;;;;;;;27.43;17.47;;;;;;;;;;772611;180;742138;-63
2021/11/21 12:52:03;;;;;;;30.40;17.77;;;;;;;;;;774187;179;632952;-64
2021/11/21 12:54:29;;;;;;;26.67;17.10;;;;;;;;;;771832;180;630995;-64
2021/11/21 12:56:55;;;;;;;29.10;17.57;;;;;;;;;;770651;179;681575;-64
2021/11/21 12:59:21;;;;;;;32.87;20.20;;;;;;;;;;768456;179;1247183;-66
2021/11/21 13:01:46;;;;;;;38.17;18.50;;;;;;;;;;769728;182;641688;-66
2021/11/21 13:04:12;;;;;;;32.40;19.63;;;;;;;;;;773213;179;624162;-64
2021/11/21 13:06:38;;;;;;;30.67;17.10;;;;;;;;;;772518;180;624204;-64
2021/11/21 13:09:05;;;;;;;32.90;18.37;;;;;;;;;;776404;180;634983;-64
2021/11/21 13:11:30;;;;;;;30.60;18.90;;;;;;;;;;771445;180;675003;-63
2021/11/21 13:13:58;;;;;;;35.60;20.17;;;;;;;;;;773331;180;636361;-64
2021/11/21 13:16:22;;;;;;;32.20;18.60;;;;;;;;;;775734;180;664386;-66
2021/11/21 13:18:47;;;;;;;34.07;20.13;;;;;;;;;;770472;180;638019;-65
2021/11/21 13:21:14;;;;;;;33.17;19.37;;;;;;;;;;766659;180;621059;-65
2021/11/21 13:23:40;;;;;;;35.60;20.20;;;;;;;;;;773238;180;627221;-66
2021/11/21 13:26:14;;;;;;;38.37;20.83;;;;;;;;;;771128;181;617345;-66
2021/11/21 13:28:41;;;;;;;30.90;21.00;;;;;;;;;;769643;180;634296;-65
2021/11/21 13:31:10;;;;;;;34.27;21.20;;;;;;;;;;770309;180;643370;-66
2021/11/21 13:33:39;;;;;;;35.93;21.20;;;;;;;;;;768424;180;925834;-64
2021/11/21 13:36:03;;;;;;;32.60;20.73;;;;;;;;;;775904;180;673432;-65
2021/11/21 13:38:29;;;;;;;32.90;20.90;;;;;;;;;;771725;180;733990;-64
2021/11/21 13:40:55;;;;;;;35.23;20.50;;;;;;;;;;771452;180;683428;-66
2021/11/21 13:43:20;;;;;;;35.20;19.40;;;;;;;;;;776021;180;639958;-66
2021/11/21 13:46:01;;;;;;;28.40;18.40;;;;;;;;;;771245;180;633306;-65
2021/11/21 13:48:28;;;;;;;34.27;20.80;;;;;;;;;;768893;180;619004;-65
2021/11/21 13:50:54;;;;;;;33.10;21.40;;;;;;;;;;767142;180;658797;-66
2021/11/21 13:53:20;;;;;;;46.10;24.93;;;;;;;;;;776974;180;624572;-65
2021/11/21 13:55:45;;;;;;;43.63;23.70;;;;;;;;;;773510;180;631639;-64
2021/11/21 13:58:17;;;;;;;40.23;23.03;;;;;;;;;;773404;180;649165;-65